Pagrindinis puslapis
METAR-TAF:

METAR-TAF

Oro uostai :

Lihue, Havajai, Jungtinės Amerikos Valstijos

platuma: 21-59-02N, ilguma: 159-20-28W, Aukštis: 45 m

Dabartinis oras

Ataskaita buvo paskelbta 41 minutes, ne 00:53 UTC
Vėjas 6 kt iš Rytų/Pietryčių
Temperatūra 26°C
Drėgmė 65%
Slėgis 1019 hPa
Matomumas: 16.1 km
Išsisklaidę debesys ne aukštis 3700 ft

METAR: PHLI 240053Z 11006KT 10SM SCT037 26/19 A3008 RMK AO2 SLP183 T02560189 $

Laikas: 15:34 (01:34 UTC)

Prognozė

Ataskaita buvo paskelbta 1 valandą ir 57 minutes, ne 23:37 UTC
Prognozė galioja nuo 24 metu 00 UTC su 24 metu 24 UTC
Vėjas 9 kt iš Pietų
Matomumas: 10 km
Mažai debesys ne aukštis 2500 ft
Nuo 24 metu 0600 UTC
Vėjas 7 kt iš Šiaurės
Matomumas: 10 km
Išsisklaidę debesys ne aukštis 2500 ft
Nuo 24 metu 2100 UTC
Vėjas 11 kt iš Šiaurės Rytų
Matomumas: 10 km
Mažai debesys ne aukštis 2500 ft
Išsisklaidę debesys ne aukštis 4000 ft

TAF: PHLI 232337Z 2400/2424 18009KT P6SM FEW025 FM240600 01007KT P6SM SCT025 FM242100 05011KT P6SM FEW025 SCT040

Orai ataskaitas ir orų prognozės (METAR, TAF).

turimą stotys yra geltonos ir raudonos taškus žemėlapyje.

Perkelti pele per norėdami pamatyti stoties vardą.

Tada spustelėkite, norėdami matyti oro stebėjimo ir prognozės.

Norėdami pakeisti žemėlapį: spustelėkite ant žalios mygtukų su juodo kryžiaus žemyn,; žalią mygtuką su brūkšneliu, jei norite nutolinti; arba žalių rodyklių gretimoms žemėlapius.


METAR-TAF: